Time;durP1;ratioP1;P1;durP2;ratioP2;P2;SDS_P1;SDS_P2;PMS_P1;PMS_P2;Temp;Humidity;BMP_temperature;BMP_pressure;BME280_temperature;BME280_humidity;BME280_pressure;Samples;Min_cycle;Max_cycle;Signal;HPM_P1;HPM_P2
2023/01/12 00:01:40;;;;;;;23.07;13.50;;;7.60;89.70;;;;;;4987759;28;20273;-64
2023/01/12 00:04:11;;;;;;;20.07;13.00;;;7.70;89.90;;;;;;4981031;28;20213;-64
2023/01/12 00:06:39;;;;;;;15.50;11.93;;;7.70;89.80;;;;;;4983672;28;20196;-64
2023/01/12 00:09:06;;;;;;;19.60;12.70;;;7.70;89.90;;;;;;4977552;28;20271;-64
2023/01/12 00:11:34;;;;;;;19.27;13.00;;;7.70;89.90;;;;;;4984759;28;20206;-64
2023/01/12 00:14:02;;;;;;;19.03;13.10;;;7.70;90.00;;;;;;4996872;28;20215;-64
2023/01/12 00:16:38;;;;;;;21.60;12.27;;;7.70;90.00;;;;;;4983239;28;20223;-64
2023/01/12 00:19:20;;;;;;;17.20;12.93;;;7.70;90.10;;;;;;4986789;28;20526;-64
2023/01/12 00:24:35;;;;;;;17.40;11.87;;;7.70;90.30;;;;;;4984171;28;20189;-64
2023/01/12 00:27:05;;;;;;;17.93;11.77;;;7.60;90.50;;;;;;4979633;28;20664;-64
2023/01/12 00:29:33;;;;;;;19.63;13.13;;;7.60;90.50;;;;;;4983400;28;20208;-64
2023/01/12 00:32:00;;;;;;;23.37;13.40;;;7.60;90.60;;;;;;4998402;28;20640;-64
2023/01/12 00:34:27;;;;;;;17.23;12.73;;;7.60;90.70;;;;;;4981642;28;20267;-64
2023/01/12 00:36:56;;;;;;;19.30;13.87;;;7.60;90.80;;;;;;4985778;28;20236;-64
2023/01/12 00:39:23;;;;;;;20.60;13.97;;;7.60;90.90;;;;;;4987511;28;20205;-64
2023/01/12 00:47:22;;;;;;;17.27;13.93;;;7.60;91.20;;;;;;4984590;28;20652;-64
2023/01/12 00:49:49;;;;;;;42.97;20.47;;;7.60;91.30;;;;;;4984929;28;20210;-64
2023/01/12 00:52:18;;;;;;;24.87;15.83;;;7.60;91.40;;;;;;4984281;28;20201;-64
2023/01/12 00:54:58;;;;;;;24.77;16.70;;;7.60;91.60;;;;;;4984128;28;20210;-64
2023/01/12 00:57:25;;;;;;;24.10;16.50;;;7.50;91.60;;;;;;4981183;28;20296;-64
2023/01/12 00:59:56;;;;;;;23.30;16.73;;;7.50;91.80;;;;;;4985710;28;20295;-64
2023/01/12 01:02:24;;;;;;;23.10;16.47;;;7.40;91.90;;;;;;4987982;28;20233;-64
2023/01/12 01:04:51;;;;;;;21.00;15.80;;;7.40;91.80;;;;;;4989884;28;20215;-64
2023/01/12 01:07:20;;;;;;;21.67;15.13;;;7.40;91.70;;;;;;4989114;28;20220;-64
2023/01/12 01:09:48;;;;;;;22.00;16.00;;;7.40;91.60;;;;;;4991294;28;20205;-64
2023/01/12 01:12:15;;;;;;;25.70;15.60;;;7.40;91.30;;;;;;4990730;28;20225;-64
2023/01/12 01:14:42;;;;;;;24.53;15.03;;;7.40;91.20;;;;;;4991915;28;20275;-64
2023/01/12 01:17:09;;;;;;;22.40;15.03;;;7.50;91.00;;;;;;4984773;28;20308;-64
2023/01/12 01:19:36;;;;;;;20.20;15.57;;;7.50;91.00;;;;;;4988302;28;20314;-64
2023/01/12 01:22:03;;;;;;;18.63;13.10;;;7.50;91.00;;;;;;4991698;28;20207;-64
2023/01/12 01:24:30;;;;;;;24.37;15.23;;;7.50;90.90;;;;;;4990281;28;20205;-64
2023/01/12 01:26:57;;;;;;;25.70;14.83;;;7.60;90.70;;;;;;4983996;28;20209;-64
2023/01/12 01:29:24;;;;;;;18.37;13.97;;;7.60;90.80;;;;;;4990539;28;20200;-64
2023/01/12 01:31:54;;;;;;;23.23;14.17;;;7.70;90.80;;;;;;4985308;28;20260;-64
2023/01/12 01:34:22;;;;;;;23.13;14.20;;;7.60;90.60;;;;;;4981289;28;20216;-64
2023/01/12 01:36:49;;;;;;;18.87;14.07;;;7.70;90.60;;;;;;4994381;28;20272;-64
2023/01/12 01:39:16;;;;;;;18.27;13.73;;;7.70;90.60;;;;;;4988508;28;20657;-65
2023/01/12 01:41:43;;;;;;;17.73;13.17;;;7.70;90.20;;;;;;4989048;28;20228;-64
2023/01/12 01:44:29;;;;;;;19.23;14.07;;;7.70;90.20;;;;;;4983307;28;20620;-64
2023/01/12 01:46:58;;;;;;;19.67;13.03;;;7.80;90.30;;;;;;4982748;28;20200;-65
2023/01/12 01:49:28;;;;;;;18.13;14.03;;;7.70;90.30;;;;;;4993967;28;20204;-64
2023/01/12 01:52:06;;;;;;;27.23;14.17;;;7.70;90.30;;;;;;4990095;28;20271;-64
2023/01/12 01:54:38;;;;;;;31.13;15.80;;;7.80;90.30;;;;;;4990676;28;20266;-64
2023/01/12 01:57:08;;;;;;;44.17;20.57;;;7.80;90.20;;;;;;4986172;28;20235;-64
2023/01/12 01:59:39;;;;;;;16.37;13.57;;;7.80;90.10;;;;;;4986265;28;20288;-64
2023/01/12 02:02:06;;;;;;;15.93;11.93;;;7.80;90.00;;;;;;4981529;28;20203;-64
2023/01/12 02:04:34;;;;;;;21.37;12.73;;;7.80;89.60;;;;;;5001834;28;20702;-64
2023/01/12 02:07:04;;;;;;;17.03;13.57;;;7.80;89.50;;;;;;4993560;28;20217;-64
2023/01/12 02:09:31;;;;;;;16.93;12.97;;;7.80;89.60;;;;;;4986572;28;20215;-64
2023/01/12 02:17:43;;;;;;;15.83;12.57;;;7.90;90.00;;;;;;4986628;28;20487;-64
2023/01/12 02:20:28;;;;;;;17.47;13.77;;;7.90;90.10;;;;;;4991518;28;20192;-64
2023/01/12 02:23:23;;;;;;;22.00;13.80;;;7.90;90.20;;;;;;5003389;28;20204;-64
2023/01/12 02:25:59;;;;;;;17.20;13.37;;;7.90;90.30;;;;;;4984181;28;20208;-64
2023/01/12 02:28:38;;;;;;;14.80;12.60;;;7.90;90.40;;;;;;4984414;28;20569;-64
2023/01/12 02:31:55;;;;;;;18.37;13.57;;;7.90;90.30;;;;;;4990855;28;20293;-64
2023/01/12 02:34:23;;;;;;;19.67;12.83;;;7.90;90.30;;;;;;4998794;28;20217;-64
2023/01/12 02:36:59;;;;;;;28.50;17.90;;;7.90;90.30;;;;;;5005644;28;20225;-64
2023/01/12 02:39:58;;;;;;;25.57;15.40;;;7.90;90.30;;;;;;4997585;28;20661;-64
2023/01/12 02:42:46;;;;;;;21.33;14.53;;;7.80;90.30;;;;;;4985202;28;20213;-65
2023/01/12 02:45:22;;;;;;;24.83;14.23;;;7.80;90.30;;;;;;4985310;28;20221;-64
2023/01/12 02:47:58;;;;;;;23.17;14.67;;;7.80;90.30;;;;;;4983933;28;20208;-64
2023/01/12 02:50:48;;;;;;;22.10;14.27;;;7.80;90.30;;;;;;4989661;28;20363;-64
2023/01/12 02:53:42;;;;;;;17.40;12.90;;;7.80;90.30;;;;;;4987139;28;20244;-64
2023/01/12 02:56:12;;;;;;;23.13;14.07;;;7.80;90.20;;;;;;4989657;28;20225;-64
2023/01/12 02:58:47;;;;;;;19.40;13.87;;;7.70;90.20;;;;;;4981526;28;20253;-64
2023/01/12 03:01:16;;;;;;;17.87;12.43;;;7.60;90.20;;;;;;4989958;28;20236;-64
2023/01/12 03:03:45;;;;;;;21.53;13.60;;;7.60;90.30;;;;;;4982755;28;20193;-64
2023/01/12 03:06:17;;;;;;;18.50;13.30;;;7.60;90.40;;;;;;4988950;28;20203;-64
2023/01/12 03:08:46;;;;;;;20.23;14.27;;;7.50;90.40;;;;;;4989010;28;20204;-64
2023/01/12 03:11:19;;;;;;;20.20;13.80;;;7.50;90.50;;;;;;4984832;28;20212;-64
2023/01/12 03:13:59;;;;;;;19.67;13.37;;;7.40;90.60;;;;;;4982822;28;20197;-64
2023/01/12 03:16:31;;;;;;;17.23;13.40;;;7.30;90.70;;;;;;4997742;28;20200;-64
2023/01/12 03:19:14;;;;;;;20.10;14.90;;;7.30;90.80;;;;;;4985850;28;20280;-64
2023/01/12 03:21:47;;;;;;;19.73;13.50;;;7.20;90.80;;;;;;4991645;28;20256;-64
2023/01/12 03:24:27;;;;;;;18.77;14.33;;;7.10;90.80;;;;;;4987555;28;20204;-65
2023/01/12 03:27:13;;;;;;;19.53;15.57;;;7.10;90.90;;;;;;4984421;28;20555;-64
2023/01/12 03:29:49;;;;;;;23.37;13.70;;;7.00;90.90;;;;;;4986929;28;20216;-64
2023/01/12 03:32:17;;;;;;;23.03;14.17;;;7.00;90.90;;;;;;4998389;28;20219;-64
2023/01/12 03:34:44;;;;;;;24.70;14.97;;;6.90;91.00;;;;;;4983333;28;20205;-64
2023/01/12 03:37:30;;;;;;;19.20;14.30;;;6.90;91.10;;;;;;4983623;28;20589;-64
2023/01/12 03:40:02;;;;;;;21.83;15.80;;;6.90;91.20;;;;;;4984144;28;20201;-64
2023/01/12 03:42:42;;;;;;;20.27;14.30;;;6.90;91.30;;;;;;4987977;28;20196;-64
2023/01/12 03:45:40;;;;;;;21.67;14.60;;;6.90;91.30;;;;;;4985932;28;20193;-64
2023/01/12 03:48:25;;;;;;;17.30;13.80;;;6.80;91.20;;;;;;4983401;28;20201;-64
2023/01/12 03:51:26;;;;;;;16.90;13.50;;;6.80;91.20;;;;;;4989247;28;20529;-64
2023/01/12 03:53:56;;;;;;;19.37;14.80;;;6.70;91.20;;;;;;4985387;28;20250;-64
2023/01/12 03:56:27;;;;;;;20.87;14.63;;;6.60;91.40;;;;;;4986729;28;20603;-64
2023/01/12 03:58:54;;;;;;;23.83;16.07;;;6.50;91.20;;;;;;4986307;28;20222;-64
2023/01/12 04:01:21;;;;;;;22.80;16.50;;;6.50;91.50;;;;;;4985733;28;20538;-64
2023/01/12 04:03:48;;;;;;;22.80;14.77;;;6.50;91.90;;;;;;4980355;28;20194;-64
2023/01/12 04:06:16;;;;;;;22.53;14.93;;;6.50;91.90;;;;;;4986955;28;20212;-64
2023/01/12 04:08:43;;;;;;;20.27;14.07;;;6.50;92.00;;;;;;4983834;28;20205;-64
2023/01/12 04:13:55;;;;;;;21.83;15.63;;;6.50;92.20;;;;;;4985477;28;20248;-63
2023/01/12 04:16:22;;;;;;;21.63;14.30;;;6.40;92.20;;;;;;4982562;28;20222;-64
2023/01/12 04:18:49;;;;;;;21.33;15.70;;;6.40;92.30;;;;;;4987626;28;20208;-64
2023/01/12 04:24:02;;;;;;;21.97;14.30;;;6.40;92.40;;;;;;4984829;28;20280;-65
2023/01/12 04:26:29;;;;;;;21.67;13.83;;;6.30;92.30;;;;;;4986215;28;20200;-65
2023/01/12 04:28:56;;;;;;;18.77;14.00;;;6.30;92.40;;;;;;4984765;28;20260;-64
2023/01/12 04:31:23;;;;;;;21.00;13.87;;;6.20;92.40;;;;;;4989714;28;20210;-64
2023/01/12 04:33:50;;;;;;;19.60;14.20;;;6.20;92.40;;;;;;4987775;28;20205;-64
2023/01/12 04:36:17;;;;;;;20.80;14.63;;;6.10;92.30;;;;;;4991704;28;20215;-64
2023/01/12 04:38:45;;;;;;;20.80;14.40;;;6.10;92.40;;;;;;4983314;28;20239;-64
2023/01/12 04:41:12;;;;;;;25.03;16.90;;;6.00;92.50;;;;;;4988111;28;20536;-64
2023/01/12 04:43:39;;;;;;;20.47;14.93;;;6.00;92.60;;;;;;4990396;28;20216;-64
2023/01/12 04:46:09;;;;;;;18.67;15.53;;;6.00;92.70;;;;;;4984145;28;20554;-64
2023/01/12 04:48:38;;;;;;;23.70;15.17;;;6.00;92.80;;;;;;4988743;28;20673;-65
2023/01/12 04:51:05;;;;;;;18.53;13.53;;;6.00;92.80;;;;;;4986181;28;20205;-64
2023/01/12 04:53:32;;;;;;;24.43;14.30;;;6.00;92.80;;;;;;4988370;28;20597;-64
2023/01/12 04:56:03;;;;;;;28.50;18.77;;;5.90;92.70;;;;;;4985914;28;20500;-64
2023/01/12 04:58:30;;;;;;;28.23;16.27;;;5.90;92.70;;;;;;4985671;28;20219;-64
2023/01/12 05:00:57;;;;;;;23.97;15.73;;;5.80;92.70;;;;;;4983338;28;20211;-64
2023/01/12 05:03:24;;;;;;;25.97;17.67;;;5.80;92.80;;;;;;4989615;28;20203;-64
2023/01/12 05:05:51;;;;;;;27.33;18.67;;;5.70;92.80;;;;;;4988120;28;20542;-64
2023/01/12 05:11:04;;;;;;;27.87;17.20;;;5.70;92.90;;;;;;4987669;28;20215;-64
2023/01/12 05:13:31;;;;;;;22.87;16.33;;;5.60;93.00;;;;;;4982369;28;20232;-64
2023/01/12 05:16:11;;;;;;;24.37;17.70;;;5.60;93.10;;;;;;4983788;28;20205;-64
2023/01/12 05:18:38;;;;;;;24.57;16.90;;;5.60;93.20;;;;;;4991607;28;20208;-64
2023/01/12 05:21:05;;;;;;;22.67;16.10;;;5.60;93.30;;;;;;4986774;28;20596;-64
2023/01/12 05:23:32;;;;;;;20.40;15.60;;;5.60;93.40;;;;;;4990199;28;20211;-64
2023/01/12 05:26:00;;;;;;;21.80;15.87;;;5.60;93.50;;;;;;4987720;28;20249;-64
2023/01/12 05:28:28;;;;;;;23.30;16.47;;;5.60;93.50;;;;;;4986266;28;20340;-64
2023/01/12 05:31:01;;;;;;;26.57;16.40;;;5.60;93.60;;;;;;4984040;28;20204;-64
2023/01/12 05:33:29;;;;;;;25.23;17.13;;;5.70;93.70;;;;;;4984021;28;20192;-64
2023/01/12 05:35:56;;;;;;;24.30;16.00;;;5.60;93.70;;;;;;4987448;28;20204;-64
2023/01/12 05:38:23;;;;;;;23.73;16.27;;;5.70;93.70;;;;;;4991271;28;20221;-64
2023/01/12 05:40:50;;;;;;;22.80;16.40;;;5.60;93.70;;;;;;4986324;28;20212;-64
2023/01/12 05:46:04;;;;;;;22.07;16.20;;;5.60;93.80;;;;;;4984240;28;20208;-64
2023/01/12 05:48:31;;;;;;;29.93;17.97;;;5.60;93.80;;;;;;4993237;28;20208;-64
2023/01/12 05:51:01;;;;;;;24.27;16.43;;;5.60;93.90;;;;;;4985257;28;20224;-64
2023/01/12 05:53:28;;;;;;;22.53;15.70;;;5.60;93.90;;;;;;4984761;28;20248;-64
2023/01/12 05:55:56;;;;;;;23.63;15.90;;;5.60;93.90;;;;;;4986166;28;20219;-64
2023/01/12 05:58:23;;;;;;;27.20;17.47;;;5.60;93.90;;;;;;4987934;28;20386;-64
2023/01/12 06:00:50;;;;;;;26.33;16.03;;;5.60;93.90;;;;;;4991893;28;20207;-64
2023/01/12 06:03:17;;;;;;;20.57;16.03;;;5.60;93.80;;;;;;4982533;28;20545;-64
2023/01/12 06:05:52;;;;;;;18.50;14.53;;;5.50;93.80;;;;;;4989527;28;20629;-64
2023/01/12 06:08:19;;;;;;;22.77;15.07;;;5.50;93.90;;;;;;4988011;28;20284;-64
2023/01/12 06:10:47;;;;;;;22.70;15.70;;;5.50;93.80;;;;;;4987587;28;20201;-64
2023/01/12 06:16:04;;;;;;;24.17;15.43;;;5.40;93.70;;;;;;4982677;28;20226;-64
2023/01/12 06:18:36;;;;;;;19.83;14.40;;;5.40;93.70;;;;;;4990549;28;20227;-64
2023/01/12 06:21:05;;;;;;;20.90;14.13;;;5.40;93.70;;;;;;4986868;28;20564;-64
2023/01/12 06:23:32;;;;;;;22.10;16.10;;;5.30;93.70;;;;;;4988463;28;20208;-64
2023/01/12 06:26:06;;;;;;;20.67;15.53;;;5.30;93.80;;;;;;4988923;28;20219;-64
2023/01/12 06:28:37;;;;;;;23.07;16.37;;;5.30;93.80;;;;;;4989214;28;20198;-64
2023/01/12 06:31:09;;;;;;;21.83;15.63;;;5.30;93.90;;;;;;4988679;28;20201;-64
2023/01/12 06:33:36;;;;;;;24.30;16.13;;;5.30;93.90;;;;;;4985653;28;20279;-64
2023/01/12 06:36:04;;;;;;;21.77;16.47;;;5.30;94.00;;;;;;4986018;28;20197;-65
2023/01/12 06:38:33;;;;;;;22.23;16.77;;;5.30;94.00;;;;;;4987590;28;20231;-64
2023/01/12 06:43:58;;;;;;;23.07;15.77;;;5.30;94.00;;;;;;4981418;28;20197;-64
2023/01/12 06:46:26;;;;;;;19.97;15.50;;;5.30;94.00;;;;;;4980410;28;20487;-64
2023/01/12 06:48:59;;;;;;;20.17;14.80;;;5.30;94.00;;;;;;4986911;28;20228;-64
2023/01/12 06:51:26;;;;;;;26.50;15.93;;;5.30;93.90;;;;;;4983589;28;20219;-64
2023/01/12 06:53:54;;;;;;;22.30;16.27;;;5.30;94.00;;;;;;4984444;28;20246;-67
2023/01/12 06:56:21;;;;;;;26.63;15.80;;;5.30;94.10;;;;;;4985101;28;20586;-64
2023/01/12 06:58:48;;;;;;;22.70;16.90;;;5.30;94.10;;;;;;4985117;28;20229;-64
2023/01/12 07:01:15;;;;;;;23.07;17.43;;;5.30;94.20;;;;;;4983647;28;20208;-64
2023/01/12 07:03:43;;;;;;;21.77;16.10;;;5.30;94.20;;;;;;4987405;28;20286;-64
2023/01/12 07:06:10;;;;;;;25.80;16.73;;;5.30;94.20;;;;;;4985119;28;20207;-64
2023/01/12 07:08:37;;;;;;;22.17;16.43;;;5.30;94.30;;;;;;4990762;28;20291;-63
2023/01/12 07:11:11;;;;;;;24.80;16.57;;;5.40;94.30;;;;;;4983025;28;20231;-64
2023/01/12 07:13:38;;;;;;;21.30;15.00;;;5.40;94.30;;;;;;4985411;28;20274;-64
2023/01/12 07:16:06;;;;;;;22.33;15.20;;;5.40;94.30;;;;;;4981102;28;20208;-64
2023/01/12 07:18:33;;;;;;;20.77;15.17;;;5.50;94.10;;;;;;4984537;28;20221;-64
2023/01/12 07:21:07;;;;;;;22.60;15.10;;;5.60;94.10;;;;;;4986116;28;20199;-64
2023/01/12 07:23:34;;;;;;;19.07;15.43;;;5.60;94.00;;;;;;4983889;28;20217;-64
2023/01/12 07:26:01;;;;;;;21.73;15.53;;;5.60;94.00;;;;;;4983146;28;20209;-64
2023/01/12 07:28:30;;;;;;;19.83;15.37;;;5.60;94.00;;;;;;4986412;28;20609;-64
2023/01/12 07:31:01;;;;;;;25.47;16.33;;;5.70;94.10;;;;;;4987179;28;20276;-64
2023/01/12 07:33:28;;;;;;;20.07;16.20;;;5.70;94.20;;;;;;4984654;28;20289;-64
2023/01/12 07:36:00;;;;;;;24.07;17.03;;;5.80;94.20;;;;;;4983151;28;20263;-64
2023/01/12 07:38:28;;;;;;;24.30;17.70;;;5.90;94.20;;;;;;4985275;28;20295;-64
2023/01/12 07:40:59;;;;;;;25.90;17.50;;;6.00;94.20;;;;;;4987207;28;20210;-64
2023/01/12 07:43:26;;;;;;;20.70;16.00;;;6.10;94.20;;;;;;4983299;28;20219;-64
2023/01/12 07:45:58;;;;;;;22.27;16.53;;;6.20;94.20;;;;;;4982037;28;20212;-64
2023/01/12 07:48:26;;;;;;;20.13;15.30;;;6.30;94.20;;;;;;4986933;28;20197;-64
2023/01/12 07:50:53;;;;;;;19.50;15.50;;;6.40;94.10;;;;;;4990240;28;20205;-64
2023/01/12 07:53:21;;;;;;;18.60;15.70;;;6.50;94.10;;;;;;4985257;28;20303;-64
2023/01/12 07:55:48;;;;;;;19.70;15.43;;;6.60;94.00;;;;;;4980892;28;20291;-64
2023/01/12 07:58:15;;;;;;;21.03;15.87;;;6.60;94.00;;;;;;4982248;28;20228;-64
2023/01/12 08:00:42;;;;;;;19.63;15.87;;;6.70;93.90;;;;;;4984373;28;20260;-64
2023/01/12 08:03:12;;;;;;;23.60;15.60;;;6.80;93.90;;;;;;4982067;28;20219;-65
2023/01/12 08:05:40;;;;;;;20.47;15.43;;;6.90;93.70;;;;;;4984118;28;20208;-64
2023/01/12 08:08:07;;;;;;;22.93;16.77;;;7.00;93.60;;;;;;4987098;28;20205;-64
2023/01/12 08:10:34;;;;;;;20.07;16.30;;;7.00;93.60;;;;;;4983754;28;20209;-64
2023/01/12 08:13:01;;;;;;;19.33;14.77;;;7.10;93.50;;;;;;4984875;28;20255;-64
2023/01/12 08:15:34;;;;;;;23.53;16.23;;;7.10;93.50;;;;;;4979131;28;20189;-64
2023/01/12 08:18:11;;;;;;;19.20;15.80;;;7.10;93.40;;;;;;4986168;28;20199;-64
2023/01/12 08:20:39;;;;;;;21.27;15.27;;;7.20;93.30;;;;;;4982532;28;20583;-64
2023/01/12 08:23:16;;;;;;;31.37;16.03;;;7.30;93.30;;;;;;4985405;28;20220;-64
2023/01/12 08:25:53;;;;;;;22.60;16.20;;;7.40;93.40;;;;;;4983272;28;20205;-64
2023/01/12 08:28:32;;;;;;;18.50;15.30;;;7.50;93.30;;;;;;4983471;28;20693;-64
2023/01/12 08:31:02;;;;;;;21.27;16.90;;;7.60;93.10;;;;;;4988402;28;20204;-64
2023/01/12 08:33:29;;;;;;;19.43;14.23;;;7.70;93.10;;;;;;4981321;28;20218;-64
2023/01/12 08:35:56;;;;;;;20.07;15.30;;;7.70;93.00;;;;;;4991224;28;20201;-64
2023/01/12 08:38:23;;;;;;;21.20;16.83;;;7.90;92.90;;;;;;4981343;28;20220;-64
2023/01/12 08:46:21;;;;;;;21.83;15.93;;;8.10;92.70;;;;;;4983284;28;20741;-64
2023/01/12 08:48:48;;;;;;;18.63;15.97;;;8.20;92.50;;;;;;4985462;28;20797;-65
2023/01/12 08:51:15;;;;;;;23.00;16.03;;;8.20;92.40;;;;;;4983177;28;20209;-65
2023/01/12 08:53:42;;;;;;;24.87;16.47;;;8.40;92.40;;;;;;4984006;28;20973;-64
2023/01/12 08:56:09;;;;;;;18.63;14.93;;;8.50;92.30;;;;;;4981020;28;20212;-64
2023/01/12 08:58:36;;;;;;;21.07;16.47;;;8.60;92.10;;;;;;4985312;28;20284;-64
2023/01/12 09:01:12;;;;;;;21.17;16.03;;;8.70;91.90;;;;;;4982566;28;20217;-64
2023/01/12 09:03:40;;;;;;;22.20;16.17;;;8.80;91.70;;;;;;4983778;28;20576;-64
2023/01/12 09:06:16;;;;;;;20.63;16.10;;;8.80;91.50;;;;;;4983738;28;20201;-64
2023/01/12 09:08:44;;;;;;;19.80;16.67;;;8.80;91.30;;;;;;4982839;28;20647;-62
2023/01/12 09:11:12;;;;;;;20.93;16.07;;;8.90;91.10;;;;;;4985680;28;20206;-62
2023/01/12 09:13:40;;;;;;;22.67;16.77;;;8.90;91.00;;;;;;4980827;28;20205;-61
2023/01/12 09:16:09;;;;;;;25.03;16.20;;;8.90;90.90;;;;;;4981359;28;20211;-63
2023/01/12 09:18:39;;;;;;;24.00;15.73;;;9.00;90.90;;;;;;4987712;28;20221;-63
2023/01/12 09:21:11;;;;;;;21.97;16.40;;;9.00;90.80;;;;;;4988467;28;20193;-63
2023/01/12 09:23:39;;;;;;;21.87;16.73;;;9.00;90.70;;;;;;4988628;28;20193;-61
2023/01/12 09:26:08;;;;;;;24.67;17.07;;;9.10;90.70;;;;;;4988747;28;20201;-61
2023/01/12 09:28:36;;;;;;;20.83;16.87;;;9.10;90.70;;;;;;4988424;28;20200;-61
2023/01/12 09:31:17;;;;;;;19.70;16.13;;;9.10;90.60;;;;;;4988256;28;20205;-61
2023/01/12 09:33:46;;;;;;;18.87;16.47;;;9.10;90.50;;;;;;4987844;28;20292;-63
2023/01/12 09:36:16;;;;;;;20.00;16.10;;;9.20;90.50;;;;;;4986375;28;20557;-62
2023/01/12 09:38:44;;;;;;;18.80;15.87;;;9.20;90.40;;;;;;4985716;28;20222;-62
2023/01/12 09:41:14;;;;;;;24.03;15.60;;;9.20;90.30;;;;;;4993728;28;20236;-62
2023/01/12 09:49:28;;;;;;;25.07;16.00;;;9.50;90.60;;;;;;4990517;28;20495;-63
2023/01/12 09:52:18;;;;;;;17.77;14.67;;;9.60;90.10;;;;;;4987299;28;20264;-63
2023/01/12 09:54:49;;;;;;;20.87;15.87;;;9.80;90.00;;;;;;4987670;28;20210;-62
2023/01/12 09:57:53;;;;;;;19.20;14.30;;;9.90;89.30;;;;;;4985099;28;20727;-61
2023/01/12 10:00:21;;;;;;;20.83;16.07;;;9.90;88.70;;;;;;4988782;28;20217;-61
2023/01/12 10:03:00;;;;;;;19.90;16.00;;;9.90;88.20;;;;;;4983400;28;20210;-61
2023/01/12 10:06:03;;;;;;;21.13;17.73;;;9.90;88.10;;;;;;4989355;28;20634;-61
2023/01/12 10:08:46;;;;;;;22.47;17.20;;;9.90;87.70;;;;;;4983110;28;20273;-63
2023/01/12 10:11:37;;;;;;;22.67;17.67;;;9.90;87.30;;;;;;4986525;28;20596;-64
2023/01/12 10:14:10;;;;;;;19.47;17.37;;;10.00;87.50;;;;;;5001630;28;20321;-62
2023/01/12 10:17:04;;;;;;;21.93;18.87;;;10.00;86.70;;;;;;4988382;28;20553;-62
2023/01/12 10:19:49;;;;;;;22.40;18.67;;;10.10;86.30;;;;;;4986400;28;20216;-62
2023/01/12 10:22:37;;;;;;;21.87;18.23;;;10.10;85.80;;;;;;4986047;28;20214;-63
2023/01/12 10:25:45;;;;;;;25.50;19.17;;;10.20;85.80;;;;;;5004229;28;20399;-62
2023/01/12 10:28:24;;;;;;;22.07;18.23;;;10.30;85.70;;;;;;4989230;28;20194;-62
2023/01/12 10:30:52;;;;;;;26.03;19.43;;;10.40;85.50;;;;;;4986214;28;20204;-64
2023/01/12 10:33:33;;;;;;;22.73;18.10;;;10.50;85.20;;;;;;4987195;28;20280;-64
2023/01/12 10:36:18;;;;;;;24.57;17.73;;;10.60;85.00;;;;;;4984998;28;20193;-64
2023/01/12 10:39:03;;;;;;;24.53;19.73;;;10.70;84.30;;;;;;4983526;28;20202;-64
2023/01/12 10:41:31;;;;;;;26.57;18.70;;;10.70;83.60;;;;;;4984596;28;20205;-63
2023/01/12 10:43:58;;;;;;;22.20;18.87;;;10.70;83.50;;;;;;4982937;28;20212;-63
2023/01/12 10:46:31;;;;;;;23.57;19.67;;;10.80;83.60;;;;;;4986427;28;20211;-63
2023/01/12 10:49:18;;;;;;;23.17;18.03;;;10.90;83.50;;;;;;4989761;28;20240;-62
2023/01/12 10:51:56;;;;;;;28.33;18.63;;;11.00;83.00;;;;;;4988374;28;20216;-62
2023/01/12 10:54:30;;;;;;;21.83;17.87;;;11.00;82.10;;;;;;4982700;28;20306;-62
2023/01/12 10:57:21;;;;;;;21.97;17.80;;;11.10;81.70;;;;;;4983568;28;20211;-63
2023/01/12 10:59:54;;;;;;;21.10;16.40;;;11.20;81.50;;;;;;4991058;28;20239;-64
2023/01/12 11:02:24;;;;;;;22.83;16.90;;;11.30;81.20;;;;;;4984190;28;20231;-63
2023/01/12 11:04:53;;;;;;;20.57;16.40;;;11.40;80.90;;;;;;4989472;28;20230;-63
2023/01/12 11:07:27;;;;;;;19.07;15.53;;;11.50;80.20;;;;;;4986438;28;20625;-63
2023/01/12 11:09:57;;;;;;;20.50;16.20;;;11.50;79.40;;;;;;4986423;28;20239;-63
2023/01/12 11:12:32;;;;;;;18.93;15.83;;;11.60;79.10;;;;;;4986637;28;20650;-62
2023/01/12 11:15:03;;;;;;;22.27;16.93;;;11.70;79.10;;;;;;4983402;28;20260;-65
2023/01/12 11:17:50;;;;;;;19.47;15.80;;;11.70;78.80;;;;;;4985995;28;20525;-63
2023/01/12 11:20:38;;;;;;;18.70;15.30;;;11.80;78.20;;;;;;4990034;28;20223;-63
2023/01/12 11:23:38;;;;;;;18.87;15.17;;;11.90;78.30;;;;;;4986570;28;20254;-63
2023/01/12 11:26:24;;;;;;;16.47;13.40;;;12.00;78.00;;;;;;4986133;28;20633;-63
2023/01/12 11:28:55;;;;;;;18.67;14.60;;;12.00;77.90;;;;;;4987729;28;20539;-62
2023/01/12 11:31:31;;;;;;;16.23;13.87;;;12.10;77.60;;;;;;4987194;28;20193;-62
2023/01/12 11:34:04;;;;;;;16.40;14.10;;;12.20;74.80;;;;;;4985894;28;20199;-64
2023/01/12 11:36:36;;;;;;;14.73;12.37;;;12.30;74.20;;;;;;4989774;28;20266;-63
2023/01/12 11:39:12;;;;;;;15.87;13.63;;;12.30;73.70;;;;;;4983995;28;20668;-64
2023/01/12 11:43:47;;;;;;;14.50;11.57;;;12.40;74.20;;;;;;4982803;28;20541;-65
2023/01/12 11:44:42;;;;;;;16.47;11.67;;;12.50;71.50;;;;;;4982767;28;20213;-64
2023/01/12 11:47:14;;;;;;;13.83;11.03;;;12.50;71.90;;;;;;4986837;28;20505;-64
2023/01/12 11:49:52;;;;;;;15.07;12.07;;;12.60;71.80;;;;;;4984871;28;20252;-63
2023/01/12 11:52:19;;;;;;;14.97;11.43;;;12.70;71.90;;;;;;4985350;28;20207;-63
2023/01/12 11:54:46;;;;;;;10.97;9.13;;;12.80;71.60;;;;;;4982415;28;20209;-63
2023/01/12 11:57:35;;;;;;;8.37;6.70;;;12.80;70.60;;;;;;4985397;28;20208;-64
2023/01/12 12:00:08;;;;;;;11.80;9.30;;;12.80;70.10;;;;;;4986205;28;20518;-64
2023/01/12 12:02:44;;;;;;;9.53;8.43;;;12.80;68.60;;;;;;4983843;28;20270;-63
2023/01/12 12:05:44;;;;;;;12.00;9.53;;;12.80;68.90;;;;;;4982049;28;20291;-65
2023/01/12 12:08:23;;;;;;;13.33;10.67;;;12.80;69.60;;;;;;4982092;28;20713;-65
2023/01/12 12:11:28;;;;;;;15.47;12.03;;;12.80;70.00;;;;;;4985375;28;20347;-65
2023/01/12 12:14:46;;;;;;;16.00;11.20;;;12.90;69.70;;;;;;4981719;28;20221;-63
2023/01/12 12:17:41;;;;;;;15.50;10.63;;;12.90;67.30;;;;;;4992399;28;20224;-63
2023/01/12 12:20:36;;;;;;;14.83;9.60;;;12.80;66.60;;;;;;4981617;28;20217;-63
2023/01/12 12:23:31;;;;;;;11.13;9.27;;;12.70;67.50;;;;;;4985491;28;20201;-63
2023/01/12 12:26:16;;;;;;;12.33;8.60;;;12.70;65.80;;;;;;4981012;28;20193;-63
2023/01/12 12:28:57;;;;;;;15.97;11.63;;;12.70;65.00;;;;;;4985529;28;20195;-63
2023/01/12 12:31:46;;;;;;;14.43;9.37;;;12.70;65.70;;;;;;4984368;28;20196;-63
2023/01/12 12:34:50;;;;;;;15.77;11.43;;;12.60;66.40;;;;;;4983600;28;20291;-63
2023/01/12 12:37:22;;;;;;;16.13;11.63;;;12.60;67.80;;;;;;4995635;28;20216;-63
2023/01/12 12:40:04;;;;;;;14.77;11.97;;;12.60;68.20;;;;;;4988144;28;20315;-63
2023/01/12 12:45:47;;;;;;;15.33;12.03;;;12.70;69.00;;;;;;4982902;28;20204;-63
2023/01/12 12:48:19;;;;;;;24.90;15.63;;;12.70;69.00;;;;;;4983821;28;20197;-63
2023/01/12 12:50:49;;;;;;;38.07;21.67;;;12.70;68.70;;;;;;4987257;28;20201;-63
2023/01/12 12:53:20;;;;;;;18.40;14.03;;;12.80;68.50;;;;;;4986193;28;20254;-63
2023/01/12 12:55:50;;;;;;;21.03;15.10;;;12.80;67.80;;;;;;4982484;28;20209;-63
2023/01/12 12:58:20;;;;;;;24.00;14.90;;;12.70;67.40;;;;;;4986800;28;20590;-63
2023/01/12 13:00:49;;;;;;;13.17;10.73;;;12.70;67.50;;;;;;4985091;28;20245;-63
2023/01/12 13:03:38;;;;;;;17.30;13.00;;;12.70;67.40;;;;;;4989794;28;20624;-63
2023/01/12 13:06:29;;;;;;;13.70;11.00;;;12.80;67.90;;;;;;4985563;28;20216;-63
2023/01/12 13:08:58;;;;;;;17.03;12.10;;;12.90;66.50;;;;;;4984744;28;20201;-63
2023/01/12 13:11:46;;;;;;;15.70;12.50;;;12.90;65.60;;;;;;4985789;28;20234;-63
2023/01/12 13:14:31;;;;;;;14.40;10.63;;;12.90;66.60;;;;;;4981881;28;20656;-63
2023/01/12 13:17:29;;;;;;;19.33;12.57;;;12.90;65.80;;;;;;4989150;28;20340;-63
2023/01/12 13:19:59;;;;;;;19.07;12.07;;;12.90;65.10;;;;;;4992981;28;20259;-63
2023/01/12 13:22:43;;;;;;;15.80;11.30;;;12.80;66.10;;;;;;4985567;28;20283;-63
2023/01/12 13:25:19;;;;;;;16.43;11.77;;;12.80;66.80;;;;;;4989111;28;20197;-63
2023/01/12 13:27:46;;;;;;;16.47;11.80;;;12.80;66.90;;;;;;4989525;28;20281;-63
2023/01/12 13:30:22;;;;;;;15.50;12.23;;;12.80;66.90;;;;;;4990015;28;20277;-63
2023/01/12 13:32:55;;;;;;;13.47;11.23;;;12.80;67.10;;;;;;4988057;28;20216;-63
2023/01/12 13:35:45;;;;;;;12.33;10.97;;;12.70;66.50;;;;;;4987977;28;20569;-61
2023/01/12 13:38:42;;;;;;;14.30;11.10;;;12.60;66.00;;;;;;4981524;28;20219;-62
2023/01/12 13:41:12;;;;;;;20.33;11.20;;;12.60;65.40;;;;;;4984830;28;20219;-62
2023/01/12 13:43:55;;;;;;;17.10;11.87;;;12.50;65.90;;;;;;4981271;28;20238;-60
2023/01/12 13:46:39;;;;;;;17.03;11.17;;;12.50;65.70;;;;;;4988936;28;20544;-61
2023/01/12 13:49:32;;;;;;;15.20;11.67;;;12.50;65.70;;;;;;4982484;28;20301;-61
2023/01/12 13:52:04;;;;;;;16.77;12.17;;;12.40;66.30;;;;;;4986993;28;20346;-61
2023/01/12 13:54:32;;;;;;;18.37;12.17;;;12.40;67.10;;;;;;4985769;28;20202;-60